Time;durP1;ratioP1;P1;durP2;ratioP2;P2;SDS_P1;SDS_P2;PMS_P1;PMS_P2;Temp;Humidity;BMP_temperature;BMP_pressure;BME280_temperature;BME280_humidity;BME280_pressure;Samples;Min_cycle;Max_cycle;Signal;HPM_P1;HPM_P2
2022/02/13 00:00:39;;;;;;;7.73;5.30;;;3.20;99.90;;;;;;5136144;27;20838;-82
2022/02/13 00:03:08;;;;;;;9.10;5.80;;;3.20;99.90;;;;;;5135936;27;20448;-84
2022/02/13 00:05:35;;;;;;;10.03;5.43;;;3.20;99.90;;;;;;5136430;27;20442;-83
2022/02/13 00:08:01;;;;;;;9.97;5.67;;;3.20;99.90;;;;;;5135998;27;20538;-82
2022/02/13 00:10:29;;;;;;;8.97;5.63;;;3.20;99.90;;;;;;5135268;27;20436;-84
2022/02/13 00:12:55;;;;;;;8.07;5.60;;;3.20;99.90;;;;;;5136236;27;20447;-81
2022/02/13 00:15:22;;;;;;;8.73;6.20;;;3.20;99.90;;;;;;5135664;27;20494;-86
2022/02/13 00:17:49;;;;;;;8.97;5.93;;;3.20;99.90;;;;;;5136161;27;20468;-82
2022/02/13 00:20:17;;;;;;;10.30;5.20;;;3.20;99.90;;;;;;5136206;27;20440;-82
2022/02/13 00:22:44;;;;;;;9.23;5.63;;;3.10;99.90;;;;;;5135903;27;20451;-83
2022/02/13 00:25:12;;;;;;;10.67;6.03;;;3.10;99.90;;;;;;5135042;27;20535;-86
2022/02/13 00:27:39;;;;;;;10.80;5.57;;;3.00;99.90;;;;;;5135685;27;20513;-83
2022/02/13 00:30:07;;;;;;;6.63;5.53;;;3.00;99.90;;;;;;5135702;27;20420;-82
2022/02/13 00:32:35;;;;;;;7.50;5.47;;;3.10;99.90;;;;;;5135724;27;20467;-81
2022/02/13 00:35:02;;;;;;;11.63;6.20;;;3.00;99.90;;;;;;5136219;27;20437;-82
2022/02/13 00:37:31;;;;;;;9.40;5.00;;;3.00;99.90;;;;;;5135911;27;20482;-84
2022/02/13 00:39:57;;;;;;;12.30;5.83;;;3.00;99.90;;;;;;5135751;27;20451;-88
2022/02/13 00:42:27;;;;;;;7.77;5.57;;;3.10;99.90;;;;;;5135964;27;20810;-83
2022/02/13 00:44:54;;;;;;;8.30;5.53;;;3.00;99.90;;;;;;5135544;27;20942;-82
2022/02/13 00:47:21;;;;;;;9.23;5.60;;;3.00;99.90;;;;;;5135956;27;20466;-87
2022/02/13 00:49:49;;;;;;;6.77;5.30;;;2.90;99.90;;;;;;5135775;27;20440;-88
2022/02/13 00:52:16;;;;;;;6.63;5.70;;;2.90;99.90;;;;;;5135116;27;20771;-82
2022/02/13 00:54:44;;;;;;;8.63;6.40;;;2.90;99.90;;;;;;5135651;27;20429;-82
2022/02/13 00:57:10;;;;;;;10.97;5.60;;;3.00;99.90;;;;;;5135049;27;20482;-84
2022/02/13 00:59:37;;;;;;;9.83;5.87;;;2.90;99.90;;;;;;5135355;27;20443;-85
2022/02/13 01:02:05;;;;;;;13.50;5.63;;;2.90;99.90;;;;;;5135088;27;20468;-81
2022/02/13 01:04:32;;;;;;;8.47;5.73;;;2.90;99.90;;;;;;5135207;27;20432;-83
2022/02/13 01:06:59;;;;;;;9.30;5.30;;;2.80;99.90;;;;;;5134841;27;20444;-86
2022/02/13 01:09:27;;;;;;;12.70;5.73;;;2.80;99.90;;;;;;5135170;27;20433;-84
2022/02/13 01:11:55;;;;;;;8.80;5.10;;;2.80;99.90;;;;;;5134983;27;20474;-83
2022/02/13 01:14:23;;;;;;;7.40;5.50;;;2.70;99.90;;;;;;5134687;27;20460;-81
2022/02/13 01:16:50;;;;;;;14.87;6.17;;;2.80;99.90;;;;;;5134672;27;20460;-82
2022/02/13 01:19:17;;;;;;;12.53;5.40;;;2.80;99.90;;;;;;5135238;27;20814;-82
2022/02/13 01:21:44;;;;;;;7.63;5.47;;;2.70;99.90;;;;;;5133568;27;20476;-84
2022/02/13 01:24:12;;;;;;;7.17;4.97;;;2.80;99.90;;;;;;5135160;27;20432;-85
2022/02/13 01:26:38;;;;;;;6.40;5.27;;;2.80;99.90;;;;;;5134223;27;20448;-83
2022/02/13 01:29:07;;;;;;;6.10;5.50;;;2.90;99.90;;;;;;5133945;27;20443;-84
2022/02/13 01:31:36;;;;;;;10.77;6.00;;;2.80;99.90;;;;;;5134157;27;20814;-84
2022/02/13 01:34:03;;;;;;;8.47;5.50;;;2.80;99.90;;;;;;5134372;27;20840;-83
2022/02/13 01:36:30;;;;;;;6.77;5.33;;;2.80;99.90;;;;;;5134118;27;20444;-83
2022/02/13 01:38:57;;;;;;;8.00;5.47;;;2.70;99.90;;;;;;5134858;27;20480;-84
2022/02/13 01:41:24;;;;;;;8.67;5.80;;;2.70;99.90;;;;;;5134275;27;20432;-84
2022/02/13 01:43:51;;;;;;;7.63;5.33;;;2.70;99.90;;;;;;5134553;27;20428;-85
2022/02/13 01:46:19;;;;;;;5.50;5.00;;;2.70;99.90;;;;;;5134103;27;20459;-82
2022/02/13 01:48:46;;;;;;;5.27;4.73;;;2.70;99.90;;;;;;5134527;27;20516;-85
2022/02/13 01:51:14;;;;;;;8.63;4.80;;;2.60;99.90;;;;;;5133988;27;20442;-82
2022/02/13 01:53:41;;;;;;;10.33;5.17;;;2.60;99.90;;;;;;5134170;27;20443;-88
2022/02/13 01:56:08;;;;;;;6.97;5.50;;;2.60;99.90;;;;;;5134248;27;20802;-84
2022/02/13 01:58:35;;;;;;;8.23;5.00;;;2.60;99.90;;;;;;5134418;27;20476;-84
2022/02/13 02:01:01;;;;;;;5.90;5.30;;;2.70;99.90;;;;;;5134363;27;20451;-82
2022/02/13 02:03:30;;;;;;;7.20;5.50;;;2.70;99.90;;;;;;5134173;27;20459;-83
2022/02/13 02:05:57;;;;;;;6.47;5.27;;;2.70;99.90;;;;;;5131141;27;20463;-84
2022/02/13 02:08:24;;;;;;;10.73;5.67;;;2.80;99.90;;;;;;5113153;28;20452;-82
2022/02/13 02:10:52;;;;;;;6.10;5.17;;;2.70;99.90;;;;;;5112255;28;20455;-83
2022/02/13 02:13:19;;;;;;;10.00;5.10;;;2.60;99.90;;;;;;5113615;28;20957;-84
2022/02/13 02:15:46;;;;;;;6.63;5.00;;;2.50;99.90;;;;;;5114625;28;20465;-84
2022/02/13 02:18:13;;;;;;;8.37;5.13;;;2.50;99.90;;;;;;5114957;28;20487;-88
2022/02/13 02:20:41;;;;;;;9.73;5.50;;;2.50;99.90;;;;;;5114079;28;20444;-85
2022/02/13 02:23:10;;;;;;;8.73;5.90;;;2.50;99.90;;;;;;5114893;28;20440;-86
2022/02/13 02:25:37;;;;;;;10.07;5.37;;;2.60;99.90;;;;;;5115384;28;20932;-85
2022/02/13 02:28:04;;;;;;;10.87;6.00;;;2.50;99.90;;;;;;5115372;28;20440;-83
2022/02/13 02:30:30;;;;;;;5.63;5.13;;;2.60;99.90;;;;;;5115113;28;20441;-83
2022/02/13 02:32:57;;;;;;;6.67;5.17;;;2.50;99.90;;;;;;5133472;27;20810;-83
2022/02/13 02:35:24;;;;;;;7.10;5.07;;;2.60;99.90;;;;;;5139007;27;20446;-81
2022/02/13 02:37:51;;;;;;;8.67;6.00;;;2.50;99.90;;;;;;5138918;27;20479;-84
2022/02/13 02:40:19;;;;;;;9.90;5.70;;;2.60;99.90;;;;;;5138512;27;20448;-84
2022/02/13 02:42:47;;;;;;;9.00;6.13;;;2.60;99.90;;;;;;5138069;27;20436;-84
2022/02/13 02:45:15;;;;;;;7.20;5.00;;;2.50;99.90;;;;;;5137766;27;20466;-83
2022/02/13 02:47:42;;;;;;;9.03;5.50;;;2.50;99.90;;;;;;5138011;27;20820;-83
2022/02/13 02:50:15;;;;;;;7.87;5.53;;;2.60;99.90;;;;;;5137868;27;20469;-84
2022/02/13 02:52:42;;;;;;;6.60;5.30;;;2.60;99.90;;;;;;5137617;27;20447;-82
2022/02/13 02:55:10;;;;;;;7.40;5.23;;;2.50;99.90;;;;;;5137634;27;20461;-83
2022/02/13 02:57:38;;;;;;;9.07;5.50;;;2.50;99.90;;;;;;5137495;27;20436;-83
2022/02/13 03:00:07;;;;;;;6.97;5.53;;;2.50;99.90;;;;;;5137745;27;20454;-85
2022/02/13 03:02:33;;;;;;;8.87;5.30;;;2.50;99.90;;;;;;5136534;27;20459;-87
2022/02/13 03:05:00;;;;;;;7.90;5.63;;;2.50;99.90;;;;;;5137480;27;20868;-82
2022/02/13 03:07:27;;;;;;;7.60;5.23;;;2.40;99.90;;;;;;5137707;27;20440;-88
2022/02/13 03:09:54;;;;;;;6.87;5.37;;;2.40;99.90;;;;;;5137175;27;20451;-82
2022/02/13 03:12:21;;;;;;;6.07;5.47;;;2.50;99.90;;;;;;5137445;27;20448;-84
2022/02/13 03:14:50;;;;;;;6.77;5.57;;;2.50;99.90;;;;;;5136993;27;20443;-83
2022/02/13 03:17:17;;;;;;;8.03;5.67;;;2.40;99.90;;;;;;5136825;27;20453;-81
2022/02/13 03:19:44;;;;;;;8.17;5.80;;;2.40;99.90;;;;;;5136955;27;20478;-83
2022/02/13 03:22:11;;;;;;;8.47;5.70;;;2.30;99.90;;;;;;5137011;27;20538;-85
2022/02/13 03:24:40;;;;;;;6.70;5.33;;;2.30;99.90;;;;;;5137281;27;20432;-84
2022/02/13 03:27:09;;;;;;;8.30;5.27;;;2.40;99.90;;;;;;5136931;27;20447;-83
2022/02/13 03:29:37;;;;;;;7.57;5.83;;;2.40;99.90;;;;;;5137297;27;20448;-83
2022/02/13 03:32:06;;;;;;;12.00;5.67;;;2.30;99.90;;;;;;5136815;27;20439;-83
2022/02/13 03:34:33;;;;;;;6.90;5.60;;;2.30;99.90;;;;;;5136765;27;20457;-79
2022/02/13 03:37:01;;;;;;;7.47;5.80;;;2.40;99.90;;;;;;5135313;27;20979;-84
2022/02/13 03:39:28;;;;;;;7.80;5.30;;;2.30;99.90;;;;;;5136836;27;20486;-85
2022/02/13 03:41:55;;;;;;;7.27;5.37;;;2.30;99.90;;;;;;5136654;27;20455;-84
2022/02/13 03:44:22;;;;;;;5.70;5.20;;;2.30;99.90;;;;;;5135585;27;20798;-84
2022/02/13 03:46:50;;;;;;;8.13;5.50;;;2.30;99.90;;;;;;5136420;27;20459;-85
2022/02/13 03:49:18;;;;;;;7.13;5.00;;;2.30;99.90;;;;;;5136327;27;20475;-84
2022/02/13 03:51:45;;;;;;;7.77;5.60;;;2.30;99.90;;;;;;5136697;27;20554;-83
2022/02/13 03:54:14;;;;;;;8.43;6.22;;;2.30;99.90;;;;;;5135068;27;20449;-83
2022/02/13 03:56:40;;;;;;;8.20;5.63;;;2.40;99.90;;;;;;5136668;27;20192;-83
2022/02/13 03:59:07;;;;;;;8.13;5.40;;;2.40;99.90;;;;;;5136496;27;20486;-85
2022/02/13 04:01:35;;;;;;;8.53;5.50;;;2.30;99.90;;;;;;5136554;27;20967;-84
2022/02/13 04:04:02;;;;;;;7.77;5.60;;;2.30;99.90;;;;;;5136133;27;20462;-83
2022/02/13 04:06:31;;;;;;;7.40;5.63;;;2.30;99.90;;;;;;5136911;27;20440;-85
2022/02/13 04:08:58;;;;;;;6.33;5.23;;;2.30;99.90;;;;;;5136188;27;20444;-83
2022/02/13 04:11:25;;;;;;;5.90;5.30;;;2.20;99.90;;;;;;5136473;27;20440;-85
2022/02/13 04:13:52;;;;;;;7.23;5.23;;;2.20;99.90;;;;;;5136063;27;20439;-84
2022/02/13 04:16:18;;;;;;;10.43;6.10;;;2.20;99.90;;;;;;5134628;27;21028;-87
2022/02/13 04:18:45;;;;;;;9.00;5.77;;;2.30;99.90;;;;;;5135739;27;20527;-85
2022/02/13 04:21:12;;;;;;;6.70;5.40;;;2.30;99.90;;;;;;5136106;27;20805;-87
2022/02/13 04:23:41;;;;;;;9.13;5.70;;;2.40;99.90;;;;;;5136176;27;20444;-85
2022/02/13 04:26:08;;;;;;;7.40;5.20;;;2.40;99.90;;;;;;5136001;27;20914;-85
2022/02/13 04:28:36;;;;;;;7.67;5.63;;;2.40;99.90;;;;;;5136813;27;20440;-85
2022/02/13 04:31:03;;;;;;;7.27;6.17;;;2.40;99.90;;;;;;5136535;27;20435;-83
2022/02/13 04:33:30;;;;;;;9.47;5.70;;;2.40;99.90;;;;;;5137577;27;20424;-84
2022/02/13 04:35:57;;;;;;;7.20;5.53;;;2.40;99.90;;;;;;5137136;27;20463;-84
2022/02/13 04:38:24;;;;;;;6.47;5.37;;;2.40;99.90;;;;;;5136920;27;20476;-83
2022/02/13 04:40:53;;;;;;;6.30;5.70;;;2.50;99.90;;;;;;5135820;27;20784;-84
2022/02/13 04:43:20;;;;;;;5.37;4.87;;;2.50;99.90;;;;;;5135950;27;20982;-82
2022/02/13 04:45:47;;;;;;;5.80;5.27;;;2.50;99.90;;;;;;5135567;27;20463;-86
2022/02/13 04:48:14;;;;;;;11.33;5.37;;;2.50;99.90;;;;;;5135788;27;20452;-83
2022/02/13 04:50:42;;;;;;;6.90;5.47;;;2.50;99.90;;;;;;5135744;27;20425;-83
2022/02/13 04:53:09;;;;;;;8.30;5.80;;;2.50;99.90;;;;;;5135604;27;20451;-84
2022/02/13 04:55:36;;;;;;;8.33;5.20;;;2.50;99.90;;;;;;5135135;27;20441;-84
2022/02/13 04:58:05;;;;;;;8.00;5.73;;;2.60;99.90;;;;;;5135554;27;20420;-87
2022/02/13 05:00:32;;;;;;;7.67;5.27;;;2.50;99.90;;;;;;5134971;27;20842;-83
2022/02/13 05:02:59;;;;;;;7.10;5.47;;;2.60;99.90;;;;;;5135216;27;20463;-86
2022/02/13 05:05:25;;;;;;;7.43;5.40;;;2.50;99.90;;;;;;5134825;27;20939;-82
2022/02/13 05:07:53;;;;;;;5.30;4.80;;;2.50;99.90;;;;;;5135251;27;20448;-88
2022/02/13 05:10:20;;;;;;;7.67;6.23;;;2.50;99.90;;;;;;5134300;27;20917;-85
2022/02/13 05:12:47;;;;;;;8.07;5.37;;;2.60;99.90;;;;;;5135207;27;20921;-84
2022/02/13 05:15:16;;;;;;;9.50;5.40;;;2.60;99.90;;;;;;5134460;27;20463;-84
2022/02/13 05:17:43;;;;;;;6.43;4.90;;;2.60;99.90;;;;;;5135138;27;20452;-87
2022/02/13 05:20:12;;;;;;;9.10;5.47;;;2.60;99.90;;;;;;5134662;27;20859;-82
2022/02/13 05:22:39;;;;;;;6.10;5.50;;;2.60;99.90;;;;;;5133474;27;20459;-83
2022/02/13 05:25:06;;;;;;;6.13;5.37;;;2.60;99.90;;;;;;5135196;27;20438;-83
2022/02/13 05:27:33;;;;;;;10.17;5.50;;;2.60;99.90;;;;;;5134502;27;20452;-84
2022/02/13 05:30:00;;;;;;;8.20;5.47;;;2.70;99.90;;;;;;5134897;27;20878;-88
2022/02/13 05:32:30;;;;;;;5.77;4.97;;;2.60;99.90;;;;;;5134421;27;20460;-81
2022/02/13 05:34:59;;;;;;;7.97;5.37;;;2.60;99.90;;;;;;5134416;27;20542;-84
2022/02/13 05:37:30;;;;;;;7.00;5.27;;;2.60;99.90;;;;;;5134422;27;20943;-83
2022/02/13 05:39:56;;;;;;;7.77;5.53;;;2.60;99.90;;;;;;5134434;27;20480;-80
2022/02/13 05:42:24;;;;;;;6.60;5.47;;;2.60;99.90;;;;;;5134050;27;20500;-84
2022/02/13 05:44:51;;;;;;;7.93;5.30;;;2.60;99.90;;;;;;5134326;27;20432;-87
2022/02/13 05:47:19;;;;;;;6.20;5.00;;;2.70;99.90;;;;;;5134604;27;20452;-83
2022/02/13 05:49:50;;;;;;;9.23;6.50;;;2.70;99.90;;;;;;5133204;27;20419;-83
2022/02/13 05:52:17;;;;;;;6.97;5.63;;;2.90;99.90;;;;;;5134283;27;20200;-83
2022/02/13 05:54:43;;;;;;;8.50;5.30;;;2.80;99.90;;;;;;5134529;27;20456;-89
2022/02/13 05:57:10;;;;;;;7.33;4.90;;;2.80;99.90;;;;;;5133774;27;20876;-82
2022/02/13 05:59:37;;;;;;;5.80;5.20;;;2.90;99.90;;;;;;5133800;27;20543;-83
2022/02/13 06:02:05;;;;;;;7.40;5.10;;;3.00;99.90;;;;;;5121670;27;20502;-84
2022/02/13 06:04:31;;;;;;;8.20;5.13;;;3.00;99.90;;;;;;5112672;28;20453;-87
2022/02/13 06:06:59;;;;;;;5.53;5.00;;;3.00;99.90;;;;;;5111562;28;20938;-83
2022/02/13 06:09:26;;;;;;;10.87;5.37;;;3.00;99.90;;;;;;5113748;28;20433;-84
2022/02/13 06:11:53;;;;;;;5.60;4.37;;;3.00;99.90;;;;;;5113688;28;20441;-83
2022/02/13 06:14:21;;;;;;;8.07;4.97;;;2.80;99.90;;;;;;5112911;28;20471;-84
2022/02/13 06:16:47;;;;;;;5.07;4.57;;;2.80;99.90;;;;;;5130133;27;20460;-85
2022/02/13 06:19:14;;;;;;;7.77;4.90;;;2.80;99.90;;;;;;5133975;27;20483;-83
2022/02/13 06:21:41;;;;;;;6.90;5.40;;;2.80;99.90;;;;;;5134098;27;20443;-81
2022/02/13 06:24:11;;;;;;;6.07;4.67;;;2.80;99.90;;;;;;5134244;28;20438;-81
2022/02/13 06:26:39;;;;;;;6.53;5.07;;;2.80;99.90;;;;;;5133412;28;20440;-85
2022/02/13 06:29:08;;;;;;;6.57;4.97;;;2.80;99.90;;;;;;5133604;28;20440;-86
2022/02/13 06:31:40;;;;;;;5.80;4.80;;;2.90;99.90;;;;;;5134168;28;20430;-85
2022/02/13 06:34:07;;;;;;;5.13;4.40;;;2.80;99.90;;;;;;5134062;27;20440;-84
2022/02/13 06:36:34;;;;;;;6.93;5.10;;;2.70;99.90;;;;;;5132681;28;20462;-88
2022/02/13 06:39:01;;;;;;;8.53;5.50;;;2.70;99.90;;;;;;5133457;28;20490;-83
2022/02/13 06:41:30;;;;;;;8.77;5.70;;;2.70;99.90;;;;;;5133789;28;20452;-86
2022/02/13 06:43:57;;;;;;;8.33;5.30;;;2.80;99.90;;;;;;5133537;28;20925;-83
2022/02/13 06:46:24;;;;;;;7.03;5.07;;;2.70;99.90;;;;;;5133724;28;20457;-84
2022/02/13 06:48:50;;;;;;;5.37;4.87;;;2.70;99.90;;;;;;5133579;28;20447;-83
2022/02/13 06:51:18;;;;;;;9.50;4.90;;;2.80;99.90;;;;;;5133985;28;20429;-84
2022/02/13 06:53:45;;;;;;;6.77;5.03;;;2.80;99.90;;;;;;5133661;28;20443;-83
2022/02/13 06:56:13;;;;;;;6.30;4.70;;;2.80;99.90;;;;;;5133334;28;20440;-81
2022/02/13 06:58:41;;;;;;;8.50;4.70;;;2.80;99.90;;;;;;5133675;28;20456;-83
2022/02/13 07:01:09;;;;;;;6.47;5.27;;;2.90;99.90;;;;;;5133725;28;20428;-84
2022/02/13 07:03:36;;;;;;;6.80;4.80;;;2.80;99.90;;;;;;5132846;28;20504;-83
2022/02/13 07:06:03;;;;;;;6.93;6.15;;;2.70;99.90;;;;;;5132339;28;20480;-83
2022/02/13 07:08:30;;;;;;;7.37;5.27;;;2.80;99.90;;;;;;5133608;27;20227;-83
2022/02/13 07:11:01;;;;;;;8.63;5.43;;;2.80;99.90;;;;;;5133386;28;20930;-85
2022/02/13 07:13:28;;;;;;;9.23;5.70;;;2.80;99.90;;;;;;5133524;28;20454;-79
2022/02/13 07:15:56;;;;;;;7.77;5.10;;;2.80;99.90;;;;;;5133315;28;20464;-83
2022/02/13 07:18:23;;;;;;;8.77;5.00;;;2.80;99.90;;;;;;5134422;27;20771;-82
2022/02/13 07:20:50;;;;;;;9.27;4.77;;;2.80;99.90;;;;;;5137293;27;20498;-82
2022/02/13 07:23:17;;;;;;;4.87;4.40;;;2.90;99.90;;;;;;5137025;27;20766;-84
2022/02/13 07:25:44;;;;;;;6.13;5.00;;;2.90;99.90;;;;;;5137442;27;20436;-83
2022/02/13 07:30:56;;;;;;;7.77;5.27;;;3.00;99.90;;;;;;5137112;27;20925;-83
2022/02/13 07:33:23;;;;;;;7.33;5.53;;;2.90;99.90;;;;;;5136785;27;20945;-88
2022/02/13 07:35:50;;;;;;;8.13;4.87;;;2.90;99.90;;;;;;5137261;27;20450;-84
2022/02/13 07:38:16;;;;;;;5.53;4.90;;;3.00;99.90;;;;;;5136549;27;20455;-82
2022/02/13 07:40:44;;;;;;;6.47;5.50;;;3.00;99.90;;;;;;5136513;27;20483;-84
2022/02/13 07:43:11;;;;;;;8.17;5.10;;;3.10;99.90;;;;;;5135830;27;20439;-82
2022/02/13 07:45:38;;;;;;;6.90;5.10;;;3.10;99.90;;;;;;5136678;27;20447;-85
2022/02/13 07:48:06;;;;;;;7.37;5.43;;;3.10;99.90;;;;;;5137167;27;20443;-83
2022/02/13 07:50:33;;;;;;;5.50;4.87;;;3.10;99.90;;;;;;5136593;27;20435;-82
2022/02/13 07:53:00;;;;;;;8.17;5.60;;;3.20;99.90;;;;;;5136488;27;20431;-86
2022/02/13 07:55:27;;;;;;;7.03;5.73;;;3.20;99.90;;;;;;5135883;27;20784;-84
2022/02/13 07:57:54;;;;;;;7.40;4.90;;;3.20;99.90;;;;;;5136188;27;20460;-82
2022/02/13 08:00:21;;;;;;;7.30;5.20;;;3.10;99.90;;;;;;5136035;27;20538;-80
2022/02/13 08:02:48;;;;;;;8.10;5.13;;;3.10;99.90;;;;;;5135453;27;20451;-81
2022/02/13 08:05:16;;;;;;;6.37;4.73;;;3.10;99.90;;;;;;5136985;27;20447;-80
2022/02/13 08:07:46;;;;;;;8.17;5.40;;;3.10;99.90;;;;;;5135907;27;20930;-82
2022/02/13 08:10:13;;;;;;;6.23;4.80;;;3.10;99.90;;;;;;5136183;27;20455;-82
2022/02/13 08:12:40;;;;;;;7.43;5.20;;;3.20;99.90;;;;;;5136082;27;20927;-81
2022/02/13 08:15:07;;;;;;;9.17;5.23;;;3.20;99.90;;;;;;5135180;27;20456;-82
2022/02/13 08:17:34;;;;;;;5.83;4.97;;;3.30;99.90;;;;;;5135255;27;20482;-83
2022/02/13 08:20:03;;;;;;;8.50;5.13;;;3.30;99.90;;;;;;5135264;27;20832;-81
2022/02/13 08:22:31;;;;;;;6.33;4.47;;;3.40;99.90;;;;;;5135346;27;20994;-83
2022/02/13 08:24:58;;;;;;;5.30;4.80;;;3.50;99.90;;;;;;5135678;27;20428;-84
2022/02/13 08:27:25;;;;;;;8.03;5.40;;;3.40;99.90;;;;;;5135456;27;20803;-83
2022/02/13 08:29:52;;;;;;;5.70;5.10;;;3.60;99.90;;;;;;5134821;27;20963;-82
2022/02/13 08:32:19;;;;;;;6.13;5.53;;;3.60;99.90;;;;;;5136054;27;20424;-84
2022/02/13 08:34:46;;;;;;;6.83;4.70;;;3.80;99.90;;;;;;5135829;27;20436;-82
2022/02/13 08:37:13;;;;;;;11.00;6.90;;;3.80;99.90;;;;;;5135823;27;20498;-82
2022/02/13 08:39:41;;;;;;;6.00;4.97;;;3.90;99.90;;;;;;5135364;27;20475;-89
2022/02/13 08:42:08;;;;;;;5.97;4.90;;;3.90;99.90;;;;;;5135446;27;20450;-82
2022/02/13 08:44:35;;;;;;;6.23;5.23;;;3.90;99.90;;;;;;5135822;27;20880;-83
2022/02/13 08:47:02;;;;;;;8.47;4.80;;;4.00;99.90;;;;;;5135271;27;20452;-82
2022/02/13 08:49:29;;;;;;;7.50;4.83;;;4.10;99.90;;;;;;5135828;27;20438;-84
2022/02/13 08:51:56;;;;;;;8.10;4.63;;;4.30;99.90;;;;;;5134935;27;20440;-83
2022/02/13 08:54:23;;;;;;;6.97;4.60;;;4.30;99.90;;;;;;5135726;27;20468;-81
2022/02/13 08:56:51;;;;;;;8.03;4.63;;;4.40;99.90;;;;;;5135299;27;20803;-82
2022/02/13 08:59:18;;;;;;;5.37;4.87;;;4.50;99.90;;;;;;5134798;27;20978;-83
2022/02/13 09:01:45;;;;;;;7.93;5.90;;;4.50;99.90;;;;;;5134711;27;20787;-88
2022/02/13 09:04:12;;;;;;;7.70;5.67;;;4.50;99.90;;;;;;5135012;27;20591;-82
2022/02/13 09:06:38;;;;;;;5.13;4.63;;;4.50;99.90;;;;;;5135028;27;20464;-79
2022/02/13 09:09:06;;;;;;;7.83;5.00;;;4.60;99.90;;;;;;5134971;27;20451;-85
2022/02/13 09:11:33;;;;;;;11.57;5.10;;;4.60;99.90;;;;;;5135235;27;20481;-81
2022/02/13 09:14:03;;;;;;;5.80;5.20;;;4.70;99.90;;;;;;5135044;27;21039;-84
2022/02/13 09:16:31;;;;;;;7.47;5.20;;;4.90;99.90;;;;;;5135071;27;20458;-83
2022/02/13 09:18:58;;;;;;;6.47;4.93;;;4.80;99.90;;;;;;5134600;27;20449;-82
2022/02/13 09:21:25;;;;;;;7.50;5.20;;;4.80;99.90;;;;;;5134488;27;20549;-81
2022/02/13 09:23:52;;;;;;;7.80;4.57;;;4.80;99.90;;;;;;5135011;27;20204;-81
2022/02/13 09:26:19;;;;;;;7.67;4.43;;;4.80;99.90;;;;;;5134780;27;20440;-82
2022/02/13 09:28:45;;;;;;;6.87;5.57;;;5.00;99.90;;;;;;5134756;27;20772;-84
2022/02/13 09:31:14;;;;;;;4.83;4.43;;;4.90;99.90;;;;;;5134764;27;20424;-83
2022/02/13 09:33:40;;;;;;;6.50;4.83;;;5.00;99.90;;;;;;5134868;27;20867;-82
2022/02/13 09:36:07;;;;;;;6.90;4.47;;;5.10;99.90;;;;;;5134226;27;20675;-85
2022/02/13 09:38:34;;;;;;;4.83;4.40;;;5.20;99.90;;;;;;5134637;27;20444;-84
2022/02/13 09:41:01;;;;;;;7.55;6.18;;;5.30;99.90;;;;;;5132796;27;20443;-82
2022/02/13 09:43:28;;;;;;;5.23;4.73;;;5.60;99.90;;;;;;5134471;27;20192;-83
2022/02/13 09:45:56;;;;;;;5.47;4.97;;;5.60;99.90;;;;;;5134636;27;20204;-84
2022/02/13 09:48:26;;;;;;;7.00;4.60;;;5.60;99.90;;;;;;5134357;27;20472;-83
2022/02/13 09:50:54;;;;;;;4.90;4.10;;;5.40;99.90;;;;;;5134110;27;20204;-84
2022/02/13 09:53:22;;;;;;;6.07;5.00;;;5.50;99.90;;;;;;5134409;27;20554;-82
2022/02/13 09:55:49;;;;;;;8.83;4.73;;;5.70;99.90;;;;;;5134501;27;20203;-82
2022/02/13 09:58:16;;;;;;;7.27;4.57;;;5.80;99.90;;;;;;5134374;27;20245;-81
2022/02/13 10:00:54;;;;;;;7.47;4.80;;;5.90;99.90;;;;;;5134604;27;20269;-78
2022/02/13 10:03:24;;;;;;;6.43;4.70;;;5.90;99.90;;;;;;5133817;27;20211;-85
2022/02/13 10:05:53;;;;;;;5.13;4.63;;;5.90;99.90;;;;;;5134338;27;20188;-82
2022/02/13 10:08:31;;;;;;;6.80;4.87;;;6.00;99.90;;;;;;5134136;27;20196;-82
2022/02/13 10:11:15;;;;;;;5.93;4.60;;;6.10;99.90;;;;;;5134487;27;20204;-82
2022/02/13 10:13:44;;;;;;;5.30;4.80;;;6.10;99.90;;;;;;5133974;27;20206;-82
2022/02/13 10:16:15;;;;;;;9.67;4.87;;;6.20;99.90;;;;;;5134180;27;20206;-80
2022/02/13 10:19:05;;;;;;;9.55;6.07;;;6.20;99.90;;;;;;5131647;27;20419;-81
2022/02/13 10:21:38;;;;;;;8.93;5.33;;;6.30;99.90;;;;;;5134261;27;20239;-79
2022/02/13 10:24:22;;;;;;;5.20;4.70;;;6.40;99.90;;;;;;5135239;28;20203;-79
2022/02/13 10:26:51;;;;;;;5.60;4.77;;;6.40;99.90;;;;;;5134579;28;20245;-80
2022/02/13 10:29:20;;;;;;;7.73;5.40;;;6.40;99.90;;;;;;5133985;28;20208;-81
2022/02/13 10:31:47;;;;;;;5.60;5.00;;;6.40;99.90;;;;;;5133568;28;20677;-79
2022/02/13 10:34:15;;;;;;;7.53;5.70;;;6.40;99.90;;;;;;5134232;27;20200;-79
2022/02/13 10:36:44;;;;;;;9.27;5.10;;;6.40;99.90;;;;;;5133952;28;20207;-80
2022/02/13 10:39:22;;;;;;;5.80;5.20;;;6.40;99.90;;;;;;5133827;28;20199;-82
2022/02/13 10:41:49;;;;;;;8.17;5.63;;;6.40;99.90;;;;;;5134123;28;20225;-79
2022/02/13 10:44:16;;;;;;;6.27;4.67;;;6.40;99.90;;;;;;5134355;27;20546;-86
2022/02/13 10:46:45;;;;;;;10.67;4.60;;;6.50;99.90;;;;;;5133878;28;20215;-81
2022/02/13 10:49:13;;;;;;;5.63;4.87;;;6.60;99.90;;;;;;5134313;28;20184;-80
2022/02/13 10:51:42;;;;;;;5.83;4.80;;;6.60;99.90;;;;;;5133877;28;20279;-81
2022/02/13 10:54:09;;;;;;;6.57;5.07;;;6.80;99.90;;;;;;5136889;27;20675;-83
2022/02/13 10:56:37;;;;;;;6.00;4.87;;;6.90;99.90;;;;;;5137764;27;20207;-82
2022/02/13 10:59:05;;;;;;;5.90;4.37;;;7.00;99.90;;;;;;5138447;27;20613;-82
2022/02/13 11:01:33;;;;;;;5.57;4.13;;;7.00;99.90;;;;;;5137212;27;20228;-79
2022/02/13 11:04:03;;;;;;;7.47;4.40;;;7.10;99.90;;;;;;5137443;27;20214;-80
2022/02/13 11:06:32;;;;;;;5.53;4.13;;;7.20;99.90;;;;;;5137935;27;20256;-81
2022/02/13 11:09:08;;;;;;;5.57;4.53;;;7.20;99.90;;;;;;5138116;27;20218;-80
2022/02/13 11:11:35;;;;;;;5.57;4.50;;;7.40;99.90;;;;;;5137620;27;20203;-81
2022/02/13 11:14:02;;;;;;;5.40;4.90;;;7.50;99.90;;;;;;5137538;27;20590;-82
2022/02/13 11:16:33;;;;;;;5.40;4.90;;;7.60;99.90;;;;;;5137285;27;20212;-79
2022/02/13 11:19:03;;;;;;;6.40;5.23;;;7.60;99.90;;;;;;5137533;27;20188;-80
2022/02/13 11:21:32;;;;;;;6.57;5.63;;;7.70;99.90;;;;;;5116994;28;20239;-81
2022/02/13 11:24:02;;;;;;;5.60;5.00;;;7.80;99.90;;;;;;5116798;28;20208;-81
2022/02/13 11:26:43;;;;;;;8.97;5.83;;;7.80;99.90;;;;;;5116933;28;20189;-83
2022/02/13 11:29:11;;;;;;;9.57;6.27;;;7.80;99.90;;;;;;5116613;28;20200;-82
2022/02/13 11:31:42;;;;;;;8.20;5.63;;;7.90;99.90;;;;;;5116073;28;20681;-82
2022/02/13 11:34:10;;;;;;;6.70;5.37;;;8.10;99.90;;;;;;5116795;28;20193;-80
2022/02/13 11:36:44;;;;;;;7.70;5.67;;;8.10;99.90;;;;;;5116797;28;20188;-81
2022/02/13 11:39:12;;;;;;;8.67;5.60;;;8.20;99.90;;;;;;5116154;28;20556;-84
2022/02/13 11:42:10;;;;;;;9.77;4.90;;;8.20;99.90;;;;;;5117377;28;20220;-81
2022/02/13 11:44:51;;;;;;;6.80;4.23;;;8.30;99.90;;;;;;5116298;28;20212;-81
2022/02/13 11:47:21;;;;;;;5.47;3.87;;;8.40;99.90;;;;;;5117596;28;20196;-82
2022/02/13 11:50:27;;;;;;;4.13;3.73;;;8.50;99.90;;;;;;5118700;28;20196;-83
2022/02/13 11:53:07;;;;;;;4.70;4.23;;;8.60;99.90;;;;;;5119390;28;20208;-84
2022/02/13 11:55:37;;;;;;;7.93;4.87;;;8.60;99.90;;;;;;5118055;28;20219;-83
2022/02/13 11:58:11;;;;;;;7.03;5.43;;;8.60;99.90;;;;;;5117559;28;20196;-82
2022/02/13 12:00:57;;;;;;;6.57;5.50;;;8.70;99.90;;;;;;5115512;28;20227;-77
2022/02/13 12:03:28;;;;;;;9.27;6.50;;;8.70;99.90;;;;;;5116623;27;20208;-80
2022/02/13 12:06:36;;;;;;;8.70;6.03;;;8.90;99.90;;;;;;5115686;28;20196;-76
2022/02/13 12:09:06;;;;;;;8.17;5.70;;;9.00;99.90;;;;;;5115856;28;20211;-74
2022/02/13 12:11:36;;;;;;;8.53;5.80;;;9.00;99.90;;;;;;5116004;28;20198;-75
2022/02/13 12:14:21;;;;;;;8.87;5.57;;;8.90;99.90;;;;;;5117926;28;20225;-74
2022/02/13 12:16:52;;;;;;;10.43;4.90;;;8.80;99.90;;;;;;5117574;28;20200;-75
2022/02/13 12:19:30;;;;;;;6.30;5.63;;;8.90;99.90;;;;;;5114992;28;20208;-74
2022/02/13 12:22:10;;;;;;;8.57;5.60;;;8.90;99.90;;;;;;5117650;27;20235;-81
2022/02/13 12:24:38;;;;;;;8.77;5.47;;;9.00;99.90;;;;;;5115109;28;20671;-78
2022/02/13 12:27:07;;;;;;;7.83;5.93;;;9.10;99.90;;;;;;5114920;28;20555;-77
2022/02/13 12:29:34;;;;;;;10.53;5.60;;;9.30;99.90;;;;;;5114585;28;20616;-76
2022/02/13 12:32:09;;;;;;;8.10;4.90;;;9.30;99.90;;;;;;5115591;28;20200;-76
2022/02/13 12:34:54;;;;;;;9.60;5.40;;;9.40;99.90;;;;;;5115820;28;20208;-76
2022/02/13 12:37:22;;;;;;;6.97;5.03;;;9.40;99.90;;;;;;5115494;28;20211;-76
2022/02/13 12:39:49;;;;;;;6.80;5.00;;;9.40;99.90;;;;;;5115454;28;20201;-76
2022/02/13 12:42:28;;;;;;;9.37;5.33;;;9.40;99.90;;;;;;5115696;28;20223;-79
2022/02/13 12:44:56;;;;;;;9.57;4.27;;;9.60;99.90;;;;;;5114884;28;20201;-76
2022/02/13 12:47:31;;;;;;;9.90;4.70;;;9.70;99.90;;;;;;5115022;28;20295;-75
2022/02/13 12:50:01;;;;;;;9.73;5.40;;;9.80;99.90;;;;;;5114515;28;20207;-76
2022/02/13 12:52:30;;;;;;;7.77;5.33;;;9.80;99.90;;;;;;5114261;28;20208;-77
2022/02/13 12:54:58;;;;;;;11.90;5.00;;;9.80;99.90;;;;;;5114877;28;20196;-78
2022/02/13 12:57:27;;;;;;;6.77;5.07;;;9.90;99.90;;;;;;5114467;28;20199;-75
2022/02/13 12:59:54;;;;;;;7.63;5.23;;;9.90;99.90;;;;;;5114054;28;20200;-78
2022/02/13 13:02:22;;;;;;;9.90;4.67;;;10.00;99.90;;;;;;5113523;28;20216;-76
2022/02/13 13:04:49;;;;;;;7.27;4.80;;;10.10;99.90;;;;;;5114347;28;20218;-76